createdAt,value
2019-05-09T00:02:17.471Z,4.90
2019-05-09T00:04:45.797Z,4.60
2019-05-09T00:07:15.120Z,4.33
2019-05-09T00:09:44.142Z,4.13
2019-05-09T00:12:14.209Z,4.40
2019-05-09T00:14:43.498Z,7.10
2019-05-09T00:17:14.069Z,8.07
2019-05-09T00:19:43.867Z,8.37
2019-05-09T00:22:13.708Z,8.40
2019-05-09T00:24:44.565Z,9.13
2019-05-09T00:27:14.149Z,7.87
2019-05-09T00:29:46.322Z,8.93
2019-05-09T00:32:40.614Z,8.17
2019-05-09T00:35:36.641Z,8.33
2019-05-09T00:38:09.524Z,8.87
2019-05-09T00:40:51.605Z,9.47
2019-05-09T00:43:08.589Z,8.23
2019-05-09T00:46:05.791Z,8.63
2019-05-09T00:48:41.235Z,9.47
2019-05-09T00:51:10.169Z,9.33
2019-05-09T00:53:38.433Z,8.87
2019-05-09T00:56:06.929Z,9.30
2019-05-09T00:58:35.277Z,9.30
2019-05-09T01:01:04.455Z,8.73
2019-05-09T01:03:34.072Z,7.93
2019-05-09T01:06:04.252Z,8.43
2019-05-09T01:08:33.648Z,10.30
2019-05-09T01:11:11.798Z,10.07
2019-05-09T01:13:34.183Z,9.50
2019-05-09T01:16:04.593Z,9.13
2019-05-09T01:18:33.150Z,9.70
2019-05-09T01:21:03.731Z,9.53
2019-05-09T01:23:34.304Z,11.40
2019-05-09T01:26:03.887Z,10.67
2019-05-09T01:28:33.840Z,12.10
2019-05-09T01:31:04.097Z,11.27
2019-05-09T01:33:40.315Z,11.43
2019-05-09T01:36:09.254Z,14.00
2019-05-09T01:38:37.879Z,12.97
2019-05-09T01:41:06.281Z,12.17
2019-05-09T01:43:35.059Z,11.77
2019-05-09T01:46:04.033Z,12.67
2019-05-09T01:48:34.119Z,13.23
2019-05-09T01:51:03.346Z,11.67
2019-05-09T01:53:34.436Z,12.47
2019-05-09T01:56:03.645Z,12.50
2019-05-09T01:58:34.272Z,13.07
2019-05-09T02:01:04.745Z,11.83
2019-05-09T02:03:33.659Z,13.30
2019-05-09T02:06:03.469Z,13.33
2019-05-09T02:08:34.566Z,12.97
2019-05-09T02:11:03.824Z,12.77
2019-05-09T02:13:34.123Z,12.27
2019-05-09T02:16:23.921Z,12.50
2019-05-09T02:19:13.592Z,11.60
2019-05-09T02:21:43.752Z,12.97
2019-05-09T02:24:14.132Z,11.87
2019-05-09T02:26:43.918Z,13.60
2019-05-09T02:29:13.813Z,12.97
2019-05-09T02:31:44.562Z,12.73
2019-05-09T02:34:14.956Z,12.67
2019-05-09T02:36:43.737Z,12.80
2019-05-09T02:39:12.505Z,13.37
2019-05-09T02:41:59.496Z,11.70
2019-05-09T02:44:12.030Z,13.37
2019-05-09T02:47:00.373Z,12.83
2019-05-09T02:49:29.210Z,13.57
2019-05-09T02:51:59.255Z,12.47
2019-05-09T02:54:29.742Z,11.77
2019-05-09T02:56:58.646Z,11.90
2019-05-09T02:59:34.104Z,11.97
2019-05-09T03:02:10.308Z,12.60
2019-05-09T03:04:39.311Z,11.77
2019-05-09T03:07:09.685Z,11.40
2019-05-09T03:09:38.957Z,10.73
2019-05-09T03:12:22.574Z,10.80
2019-05-09T03:14:38.931Z,11.17
2019-05-09T03:17:08.813Z,10.00
2019-05-09T03:19:38.788Z,10.70
2019-05-09T03:22:13.061Z,10.30
2019-05-09T03:24:41.567Z,10.37
2019-05-09T03:27:18.707Z,13.17
2019-05-09T03:29:50.403Z,13.40
2019-05-09T03:32:19.668Z,13.90
2019-05-09T03:34:48.561Z,13.70
2019-05-09T03:37:17.613Z,14.17
2019-05-09T03:39:47.857Z,14.47
2019-05-09T03:42:21.416Z,15.17
2019-05-09T03:44:48.381Z,13.70
2019-05-09T03:47:42.610Z,13.97
2019-05-09T03:50:17.740Z,15.10
2019-05-09T03:52:47.764Z,14.83
2019-05-09T03:55:36.195Z,16.07
2019-05-09T03:58:24.249Z,14.00
2019-05-09T04:00:52.641Z,13.60
2019-05-09T04:03:22.295Z,13.07
2019-05-09T04:05:58.691Z,12.17
2019-05-09T04:08:21.458Z,12.07
2019-05-09T04:10:50.719Z,13.10
2019-05-09T04:13:20.362Z,12.63
2019-05-09T04:15:49.353Z,12.97
2019-05-09T04:18:18.407Z,13.00
2019-05-09T04:20:48.227Z,14.10
2019-05-09T04:23:18.762Z,12.70
2019-05-09T04:25:53.803Z,13.07
2019-05-09T04:28:22.285Z,12.43
2019-05-09T04:30:50.889Z,13.57
2019-05-09T04:33:20.967Z,13.13
2019-05-09T04:35:49.651Z,13.10
2019-05-09T04:38:18.293Z,13.23
2019-05-09T04:40:48.778Z,12.97
2019-05-09T04:43:26.741Z,12.67
2019-05-09T04:45:57.927Z,11.40
2019-05-09T04:48:30.171Z,10.87
2019-05-09T04:50:59.446Z,8.97
2019-05-09T04:53:28.613Z,8.67
2019-05-09T04:55:59.048Z,8.93
2019-05-09T04:58:27.435Z,8.77
2019-05-09T05:01:09.382Z,7.83
2019-05-09T05:03:38.494Z,7.13
2019-05-09T05:06:07.681Z,6.30
2019-05-09T05:08:37.532Z,6.40
2019-05-09T05:11:07.551Z,7.80
2019-05-09T05:13:38.372Z,8.03
2019-05-09T05:16:08.391Z,9.50
2019-05-09T05:18:37.450Z,9.37
2019-05-09T05:21:07.820Z,8.90
2019-05-09T05:23:57.594Z,10.00
2019-05-09T05:26:27.663Z,9.27
2019-05-09T05:28:58.038Z,10.43
2019-05-09T05:31:28.566Z,9.77
2019-05-09T05:34:10.570Z,9.60
2019-05-09T05:36:39.053Z,10.90
2019-05-09T05:39:08.354Z,10.87
2019-05-09T05:41:37.789Z,10.93
2019-05-09T05:44:08.354Z,11.10
2019-05-09T05:46:59.150Z,10.80
2019-05-09T05:49:28.027Z,10.70
2019-05-09T05:51:57.667Z,11.70
2019-05-09T05:54:27.736Z,10.03
2019-05-09T05:56:57.870Z,8.17
2019-05-09T05:59:28.596Z,5.03
2019-05-09T06:01:58.510Z,3.90
2019-05-09T06:04:27.709Z,2.87
2019-05-09T06:06:58.627Z,2.17
2019-05-09T06:09:28.041Z,2.10
2019-05-09T06:11:57.789Z,2.03
2019-05-09T06:14:28.542Z,1.73
2019-05-09T06:16:58.719Z,2.00
2019-05-09T06:19:28.599Z,1.50
2019-05-09T06:21:57.593Z,1.50
2019-05-09T06:24:28.215Z,1.40
2019-05-09T06:26:58.408Z,1.60
2019-05-09T06:29:28.568Z,1.57
2019-05-09T06:31:58.460Z,1.77
2019-05-09T06:34:27.806Z,1.70
2019-05-09T06:36:58.523Z,1.83
2019-05-09T06:39:28.508Z,1.50
2019-05-09T06:41:57.678Z,1.57
2019-05-09T06:44:34.310Z,1.90
2019-05-09T06:47:27.757Z,1.37
2019-05-09T06:49:57.739Z,1.72
2019-05-09T06:52:28.182Z,1.50
2019-05-09T06:54:58.233Z,1.50
2019-05-09T06:57:28.118Z,1.60
2019-05-09T06:59:57.906Z,2.07
2019-05-09T07:02:35.257Z,1.87
2019-05-09T07:05:13.083Z,1.90
2019-05-09T07:08:00.627Z,2.20
2019-05-09T07:10:31.063Z,2.00
2019-05-09T07:12:59.886Z,1.50
2019-05-09T07:15:28.750Z,1.40
2019-05-09T07:17:57.615Z,1.53
2019-05-09T07:20:28.334Z,2.03
2019-05-09T07:22:58.241Z,2.07
2019-05-09T07:25:39.422Z,2.07
2019-05-09T07:28:07.852Z,1.80
2019-05-09T07:31:07.523Z,1.90
2019-05-09T07:33:47.570Z,1.77
2019-05-09T07:36:16.077Z,2.50
2019-05-09T07:38:44.714Z,1.90
2019-05-09T07:41:13.039Z,1.60
2019-05-09T07:43:41.407Z,2.13
2019-05-09T07:46:28.810Z,1.60
2019-05-09T07:48:58.494Z,2.40
2019-05-09T07:51:27.681Z,1.83
2019-05-09T07:53:58.703Z,2.27
2019-05-09T07:56:28.456Z,2.30
2019-05-09T07:58:58.530Z,2.33
2019-05-09T08:01:28.179Z,2.80
2019-05-09T08:03:58.375Z,1.50
2019-05-09T08:06:28.735Z,1.80
2019-05-09T08:08:58.808Z,2.10
2019-05-09T08:11:28.720Z,1.73
2019-05-09T08:13:58.134Z,2.27
2019-05-09T08:16:27.938Z,1.90
2019-05-09T08:18:57.782Z,1.83
2019-05-09T08:21:27.669Z,2.80
2019-05-09T08:23:57.829Z,2.27
2019-05-09T08:26:29.779Z,1.90
2019-05-09T08:28:58.430Z,1.87
2019-05-09T08:31:28.038Z,2.37
2019-05-09T08:33:59.247Z,1.90
2019-05-09T08:36:28.158Z,1.97
2019-05-09T08:38:58.672Z,1.80
2019-05-09T08:41:29.133Z,2.77
2019-05-09T08:43:57.705Z,2.23
2019-05-09T08:46:28.645Z,2.10
2019-05-09T08:48:57.751Z,2.27
2019-05-09T08:52:04.761Z,2.23
2019-05-09T08:54:34.442Z,1.90
2019-05-09T08:57:03.370Z,1.90
2019-05-09T08:59:32.106Z,3.37
2019-05-09T09:02:14.746Z,2.20
2019-05-09T09:04:31.326Z,2.47
2019-05-09T09:07:00.021Z,2.07
2019-05-09T09:09:28.758Z,1.93
2019-05-09T09:11:58.322Z,1.83
2019-05-09T09:14:27.974Z,2.30
2019-05-09T09:16:57.579Z,1.90
2019-05-09T09:19:28.009Z,2.40
2019-05-09T09:22:09.805Z,2.10
2019-05-09T09:24:44.575Z,1.70
2019-05-09T09:27:13.397Z,1.63
2019-05-09T09:29:43.102Z,2.33
2019-05-09T09:32:11.903Z,2.00
2019-05-09T09:34:40.361Z,2.20
2019-05-09T09:37:11.421Z,1.90
2019-05-09T09:39:44.368Z,2.50
2019-05-09T09:42:09.374Z,2.10
2019-05-09T09:44:39.342Z,2.40
2019-05-09T09:47:07.989Z,2.60
2019-05-09T09:49:38.163Z,2.30
2019-05-09T09:52:08.561Z,2.17
2019-05-09T09:54:38.580Z,2.17
2019-05-09T09:57:09.723Z,2.43
2019-05-09T09:59:56.151Z,2.80
2019-05-09T10:02:29.858Z,2.57
2019-05-09T10:04:58.426Z,2.40
2019-05-09T10:07:27.927Z,3.37
2019-05-09T10:09:58.417Z,3.00
2019-05-09T10:12:28.588Z,2.97
2019-05-09T10:15:04.153Z,2.20
2019-05-09T10:17:42.471Z,2.53
2019-05-09T10:20:39.429Z,3.15
2019-05-09T10:23:14.924Z,2.70
2019-05-09T10:25:38.324Z,2.80
2019-05-09T10:28:08.725Z,2.90
2019-05-09T10:30:38.235Z,3.20
2019-05-09T10:33:09.086Z,2.87
2019-05-09T10:35:39.243Z,2.60
2019-05-09T10:38:08.698Z,4.00
2019-05-09T10:40:39.797Z,3.20
2019-05-09T10:43:30.693Z,3.03
2019-05-09T10:46:16.397Z,2.53
2019-05-09T10:48:50.262Z,3.75
2019-05-09T10:51:19.108Z,3.77
2019-05-09T10:53:48.296Z,3.27
2019-05-09T10:56:18.710Z,3.30
2019-05-09T10:58:48.219Z,2.90
2019-05-09T11:01:18.527Z,2.97
2019-05-09T11:03:48.443Z,2.87
2019-05-09T11:06:18.466Z,3.20
2019-05-09T11:08:48.076Z,3.30
2019-05-09T11:11:18.190Z,3.63
2019-05-09T11:13:48.616Z,2.90
2019-05-09T11:16:18.363Z,2.93
2019-05-09T11:18:48.209Z,2.40
2019-05-09T11:21:19.309Z,3.27
2019-05-09T11:23:48.768Z,3.00
2019-05-09T11:26:18.965Z,2.37
2019-05-09T11:28:47.638Z,2.57
2019-05-09T11:31:18.367Z,2.70
2019-05-09T11:33:48.447Z,3.10
2019-05-09T11:36:20.744Z,2.50
2019-05-09T11:38:49.391Z,2.87
2019-05-09T11:41:19.364Z,2.67
2019-05-09T11:43:48.528Z,2.50
2019-05-09T11:46:18.094Z,2.30
2019-05-09T11:48:47.293Z,2.87
2019-05-09T11:51:20.405Z,2.90
2019-05-09T11:53:48.263Z,2.63
2019-05-09T11:56:17.921Z,2.80
2019-05-09T11:58:48.065Z,3.77
2019-05-09T12:01:18.846Z,3.37
2019-05-09T12:03:49.897Z,3.00
2019-05-09T12:06:19.628Z,2.87
2019-05-09T12:08:48.425Z,3.80
2019-05-09T12:11:18.183Z,4.03
2019-05-09T12:13:48.702Z,2.97
2019-05-09T12:16:18.511Z,3.67
2019-05-09T12:18:48.803Z,4.10
2019-05-09T12:21:19.436Z,3.30
2019-05-09T12:23:49.108Z,3.90
2019-05-09T12:26:18.646Z,4.47
2019-05-09T12:28:48.235Z,4.40
2019-05-09T12:31:18.099Z,3.80
2019-05-09T12:33:48.286Z,3.37
2019-05-09T12:36:19.200Z,3.98
2019-05-09T12:38:49.644Z,4.97
2019-05-09T12:41:19.256Z,4.37
2019-05-09T12:43:48.039Z,4.43
2019-05-09T12:46:16.283Z,4.87
2019-05-09T12:48:44.938Z,4.03
2019-05-09T12:51:13.752Z,4.57
2019-05-09T12:53:42.373Z,5.33
2019-05-09T12:56:12.225Z,5.60
2019-05-09T12:58:40.920Z,4.70
2019-05-09T13:01:09.904Z,5.77
2019-05-09T13:03:38.837Z,5.63
2019-05-09T13:06:08.159Z,5.10
2019-05-09T13:08:38.541Z,5.50
2019-05-09T13:11:08.077Z,5.47
2019-05-09T13:13:40.950Z,5.23
2019-05-09T13:16:42.643Z,6.40
2019-05-09T13:19:07.034Z,5.03
2019-05-09T13:21:38.348Z,5.83
2019-05-09T13:24:08.334Z,5.80
2019-05-09T13:26:38.520Z,6.67
2019-05-09T13:29:08.107Z,6.62
2019-05-09T13:31:39.307Z,6.93
2019-05-09T13:34:08.018Z,6.80
2019-05-09T13:36:36.944Z,6.93
2019-05-09T13:39:08.598Z,7.93
2019-05-09T13:41:37.650Z,6.77
2019-05-09T13:44:10.839Z,5.63
2019-05-09T13:46:38.798Z,7.20
2019-05-09T13:49:12.531Z,7.43
2019-05-09T13:51:47.423Z,7.37
2019-05-09T13:54:08.219Z,7.30
2019-05-09T13:56:36.802Z,8.23
2019-05-09T13:59:08.036Z,8.13
2019-05-09T14:01:37.807Z,8.33
2019-05-09T14:04:07.972Z,7.90
2019-05-09T14:06:38.712Z,8.57
2019-05-09T14:09:10.357Z,8.83
2019-05-09T14:11:38.538Z,9.07
2019-05-09T14:14:07.279Z,8.10
2019-05-09T14:16:38.747Z,8.90
2019-05-09T14:19:26.013Z,8.67
2019-05-09T14:21:36.729Z,9.27
2019-05-09T14:24:12.236Z,9.33
2019-05-09T14:26:35.800Z,8.80
2019-05-09T14:29:04.409Z,10.13
2019-05-09T14:31:32.937Z,9.47
2019-05-09T14:34:01.782Z,9.37
2019-05-09T14:36:30.281Z,8.50
2019-05-09T14:38:59.005Z,8.23
2019-05-09T14:41:27.951Z,8.77
2019-05-09T14:43:56.630Z,8.90
2019-05-09T14:46:25.509Z,8.87
2019-05-09T14:48:54.305Z,9.43
2019-05-09T14:51:23.065Z,11.73
2019-05-09T14:53:51.924Z,9.40
2019-05-09T14:56:20.390Z,10.50
2019-05-09T14:58:49.413Z,10.20
2019-05-09T15:01:19.433Z,8.97
2019-05-09T15:03:48.620Z,8.63
2019-05-09T15:06:18.213Z,9.47
2019-05-09T15:08:48.252Z,9.43
2019-05-09T15:11:18.224Z,10.30
2019-05-09T15:13:47.770Z,9.53
2019-05-09T15:16:18.405Z,10.53
2019-05-09T15:18:48.628Z,11.00
2019-05-09T15:21:19.157Z,12.25
2019-05-09T15:23:48.189Z,9.77
2019-05-09T15:26:17.679Z,10.70
2019-05-09T15:28:48.358Z,8.63
2019-05-09T15:31:18.461Z,10.63
2019-05-09T15:33:48.658Z,9.87
2019-05-09T15:36:19.320Z,8.77
2019-05-09T15:38:48.639Z,10.07
2019-05-09T15:41:18.368Z,9.90
2019-05-09T15:43:48.524Z,10.50
2019-05-09T15:46:22.753Z,9.87
2019-05-09T15:48:51.469Z,9.97
2019-05-09T15:51:20.387Z,12.03
2019-05-09T15:53:50.569Z,11.17
2019-05-09T15:56:19.294Z,10.20
2019-05-09T15:58:49.006Z,10.07
2019-05-09T16:01:18.430Z,10.20
2019-05-09T16:03:48.618Z,11.23
2019-05-09T16:06:19.994Z,10.63
2019-05-09T16:08:48.800Z,10.03
2019-05-09T16:11:18.156Z,9.63
2019-05-09T16:13:48.005Z,11.78
2019-05-09T16:16:17.520Z,11.63
2019-05-09T16:18:48.343Z,9.57
2019-05-09T16:21:16.220Z,10.63
2019-05-09T16:23:45.593Z,11.03
2019-05-09T16:26:14.197Z,11.10
2019-05-09T16:28:42.862Z,10.60
2019-05-09T16:31:11.820Z,10.23
2019-05-09T16:33:40.248Z,10.53
2019-05-09T16:36:10.250Z,11.33
2019-05-09T16:38:45.410Z,10.00
2019-05-09T16:41:09.464Z,10.30
2019-05-09T16:43:39.188Z,12.70
2019-05-09T16:46:08.222Z,10.80
2019-05-09T16:48:36.773Z,8.93
2019-05-09T16:51:07.846Z,10.57
2019-05-09T16:53:36.271Z,10.80
2019-05-09T16:56:08.037Z,10.00
2019-05-09T16:58:37.931Z,9.30
2019-05-09T17:01:08.277Z,10.27
2019-05-09T17:03:36.868Z,10.60
2019-05-09T17:06:07.657Z,10.03
2019-05-09T17:08:38.442Z,9.40
2019-05-09T17:11:07.747Z,10.87
2019-05-09T17:13:37.030Z,9.37
2019-05-09T17:16:07.438Z,10.43
2019-05-09T17:18:38.194Z,9.23
2019-05-09T17:21:37.907Z,10.27
2019-05-09T17:24:09.553Z,9.73
2019-05-09T17:26:38.071Z,10.43
2019-05-09T17:29:06.723Z,10.63
2019-05-09T17:31:38.160Z,10.10
2019-05-09T17:34:06.131Z,12.33
2019-05-09T17:36:34.934Z,11.37
2019-05-09T17:39:07.769Z,11.90
2019-05-09T17:41:37.746Z,11.10
2019-05-09T17:44:07.693Z,11.47
2019-05-09T17:46:38.629Z,13.10
2019-05-09T17:49:08.310Z,12.80
2019-05-09T17:51:37.493Z,14.53
2019-05-09T17:54:08.122Z,12.87
2019-05-09T17:56:37.911Z,14.33
2019-05-09T17:59:08.344Z,14.47
2019-05-09T18:01:36.451Z,13.83
2019-05-09T18:04:04.669Z,13.80
2019-05-09T18:06:33.109Z,14.77
2019-05-09T18:09:01.818Z,15.53
2019-05-09T18:11:30.929Z,14.40
2019-05-09T18:13:59.908Z,14.83
2019-05-09T18:16:28.709Z,14.40
2019-05-09T18:18:58.997Z,14.37
2019-05-09T18:21:28.333Z,16.30
2019-05-09T18:23:58.692Z,16.27
2019-05-09T18:26:28.005Z,17.03
2019-05-09T18:28:59.397Z,16.33
2019-05-09T18:31:34.665Z,17.57
2019-05-09T18:34:03.410Z,15.50
2019-05-09T18:36:32.314Z,15.43
2019-05-09T18:39:01.074Z,16.70
2019-05-09T18:41:29.947Z,18.13
2019-05-09T18:43:58.489Z,16.07
2019-05-09T18:46:28.033Z,17.27
2019-05-09T18:48:56.930Z,17.17
2019-05-09T18:51:28.504Z,16.47
2019-05-09T18:53:56.026Z,16.40
2019-05-09T18:56:24.543Z,16.43
2019-05-09T18:58:53.414Z,15.60
2019-05-09T19:01:22.689Z,17.30
2019-05-09T19:03:51.511Z,14.97
2019-05-09T19:06:20.637Z,15.80
2019-05-09T19:08:50.206Z,14.27
2019-05-09T19:11:19.052Z,17.83
2019-05-09T19:13:48.536Z,14.93
2019-05-09T19:16:52.412Z,16.10
2019-05-09T19:19:43.934Z,19.57
2019-05-09T19:22:22.063Z,17.10
2019-05-09T19:24:43.994Z,18.13
2019-05-09T19:27:12.442Z,17.80
2019-05-09T19:29:41.396Z,18.30
2019-05-09T19:32:10.340Z,18.93
2019-05-09T19:34:38.986Z,17.37
2019-05-09T19:37:07.706Z,17.03
2019-05-09T19:39:36.430Z,18.23
2019-05-09T19:42:07.039Z,17.20
2019-05-09T19:44:35.642Z,17.27
2019-05-09T19:47:05.162Z,18.33
2019-05-09T19:49:34.238Z,18.97
2019-05-09T19:52:02.620Z,16.97
2019-05-09T19:54:31.780Z,17.53
2019-05-09T19:57:01.482Z,17.43
2019-05-09T19:59:30.333Z,18.90
2019-05-09T20:01:59.346Z,17.67
2019-05-09T20:04:29.145Z,16.70
2019-05-09T20:06:58.380Z,17.80
2019-05-09T20:09:36.896Z,20.93
2019-05-09T20:12:24.329Z,16.97
2019-05-09T20:14:54.610Z,17.70
2019-05-09T20:17:23.871Z,19.43
2019-05-09T20:19:54.012Z,18.10
2019-05-09T20:22:22.808Z,18.70
2019-05-09T20:24:51.771Z,18.93
2019-05-09T20:27:21.439Z,18.67
2019-05-09T20:29:50.827Z,17.80
2019-05-09T20:32:19.781Z,18.07
2019-05-09T20:34:49.437Z,19.27
2019-05-09T20:37:18.970Z,19.77
2019-05-09T20:39:48.224Z,17.17
2019-05-09T20:42:17.948Z,16.10
2019-05-09T20:44:48.619Z,17.80
2019-05-09T20:47:18.171Z,16.53
2019-05-09T20:49:47.450Z,17.33
2019-05-09T20:52:24.429Z,17.17
2019-05-09T20:54:53.322Z,16.53
2019-05-09T20:57:22.584Z,17.60
2019-05-09T20:59:51.197Z,21.03
2019-05-09T21:02:22.139Z,18.00
2019-05-09T21:04:51.076Z,17.23
2019-05-09T21:07:20.917Z,16.10
2019-05-09T21:09:50.853Z,17.37
2019-05-09T21:12:19.382Z,17.63
2019-05-09T21:14:48.294Z,17.27
2019-05-09T21:17:16.826Z,18.60
2019-05-09T21:19:45.536Z,18.77
2019-05-09T21:22:13.986Z,20.40
2019-05-09T21:24:42.297Z,19.90
2019-05-09T21:27:10.704Z,19.27
2019-05-09T21:29:42.776Z,20.60
2019-05-09T21:32:11.403Z,19.27
2019-05-09T21:34:40.309Z,19.17
2019-05-09T21:37:09.801Z,18.17
2019-05-09T21:39:38.142Z,18.70
2019-05-09T21:42:06.999Z,19.13
2019-05-09T21:44:35.814Z,18.40
2019-05-09T21:47:04.337Z,16.90
2019-05-09T21:49:33.076Z,17.43
2019-05-09T21:52:01.449Z,19.40
2019-05-09T21:54:30.106Z,18.43
2019-05-09T21:56:58.588Z,19.80
2019-05-09T21:59:27.313Z,17.67
2019-05-09T22:01:56.966Z,17.97
2019-05-09T22:04:25.558Z,19.20
2019-05-09T22:06:53.801Z,19.93
2019-05-09T22:09:22.226Z,18.67
2019-05-09T22:11:50.929Z,18.27
2019-05-09T22:14:19.814Z,20.92
2019-05-09T22:16:48.741Z,19.47
2019-05-09T22:19:18.030Z,18.77
2019-05-09T22:21:46.603Z,17.03
2019-05-09T22:24:15.402Z,18.07
2019-05-09T22:26:44.139Z,17.30
2019-05-09T22:29:12.761Z,17.97
2019-05-09T22:31:41.301Z,17.10
2019-05-09T22:34:10.165Z,16.87
2019-05-09T22:36:38.774Z,21.82
2019-05-09T22:39:07.766Z,18.43
2019-05-09T22:41:36.521Z,18.80
2019-05-09T22:44:05.567Z,19.57
2019-05-09T22:46:34.213Z,19.33
2019-05-09T22:49:04.729Z,17.17
2019-05-09T22:51:34.178Z,17.70
2019-05-09T22:54:12.362Z,17.77
2019-05-09T22:56:33.458Z,17.60
2019-05-09T22:59:02.038Z,19.57
2019-05-09T23:01:30.497Z,17.80
2019-05-09T23:03:59.006Z,20.27
2019-05-09T23:06:28.018Z,17.73
2019-05-09T23:08:57.278Z,17.73
2019-05-09T23:11:26.286Z,18.67
2019-05-09T23:13:55.022Z,17.73
2019-05-09T23:16:24.352Z,17.20
2019-05-09T23:18:53.025Z,17.30
2019-05-09T23:21:22.228Z,16.83
2019-05-09T23:24:28.222Z,17.10
2019-05-09T23:26:47.059Z,17.27
2019-05-09T23:29:15.702Z,15.70
2019-05-09T23:31:52.670Z,18.40
2019-05-09T23:34:21.199Z,17.87
2019-05-09T23:36:49.516Z,16.97
2019-05-09T23:39:29.198Z,18.50
2019-05-09T23:41:57.777Z,16.13
2019-05-09T23:44:26.251Z,17.13
2019-05-09T23:46:54.818Z,16.93
2019-05-09T23:49:23.135Z,17.13
2019-05-09T23:51:51.465Z,17.23
2019-05-09T23:54:47.437Z,21.45
2019-05-09T23:57:27.727Z,18.93
